Time;durP1;ratioP1;P1;durP2;ratioP2;P2;SDS_P1;SDS_P2;PMS_P1;PMS_P2;Temp;Humidity;BMP_temperature;BMP_pressure;BME280_temperature;BME280_humidity;BME280_pressure;Samples;Min_cycle;Max_cycle;Signal;HPM_P1;HPM_P2
2022/12/31 00:01:04;;;;;;;28.92;3.78;;;10.20;82.50;;;;;;4143085;28;20484;-85
2022/12/31 00:03:25;;;;;;;28.17;3.30;;;10.20;82.30;;;;;;4143111;28;20048;-86
2022/12/31 00:05:46;;;;;;;28.33;3.67;;;10.30;82.30;;;;;;4149521;28;20033;-84
2022/12/31 00:08:06;;;;;;;22.67;4.38;;;10.30;82.90;;;;;;4145741;28;20042;-85
2022/12/31 00:10:07;;;;;;;24.73;3.45;;;10.30;81.90;;;;;;4142753;28;20101;-85
2022/12/31 00:12:08;;;;;;;26.67;3.95;;;10.20;81.70;;;;;;4139941;28;20038;-85
2022/12/31 00:14:09;;;;;;;26.75;3.97;;;10.20;81.70;;;;;;4142322;28;20036;-84
2022/12/31 00:16:15;;;;;;;30.08;4.50;;;10.30;81.60;;;;;;4139477;28;20073;-86
2022/12/31 00:18:16;;;;;;;26.00;3.67;;;10.10;81.40;;;;;;4138294;28;20065;-85
2022/12/31 00:20:23;;;;;;;19.00;3.28;;;10.10;81.30;;;;;;4135657;28;20405;-84
2022/12/31 00:25:41;;;;;;;21.92;3.30;;;10.10;81.00;;;;;;4140152;28;20025;-86
2022/12/31 00:27:46;;;;;;;25.83;3.50;;;10.20;80.80;;;;;;4140623;28;20132;-84
2022/12/31 00:29:53;;;;;;;22.98;4.05;;;10.10;80.70;;;;;;4145142;28;20017;-86
2022/12/31 00:32:24;;;;;;;34.97;3.75;;;10.10;80.70;;;;;;4133973;28;20033;-87
2022/12/31 00:34:28;;;;;;;28.15;3.55;;;10.10;80.50;;;;;;4151071;28;20121;-87
2022/12/31 00:36:58;;;;;;;;;;;10.10;80.40;;;;;;4135846;28;20045;-86
2022/12/31 00:39:05;;;;;;;33.85;4.05;;;10.10;80.30;;;;;;4143258;28;19999;-84
2022/12/31 00:41:26;;;;;;;24.13;3.47;;;10.10;80.10;;;;;;4140643;28;20081;-84
2022/12/31 00:43:48;;;;;;;26.60;3.50;;;10.10;80.10;;;;;;4142562;28;20042;-85
2022/12/31 00:46:12;;;;;;;24.63;3.75;;;10.00;80.10;;;;;;4143083;28;20431;-86
2022/12/31 00:48:34;;;;;;;26.73;4.68;;;10.10;80.10;;;;;;4153952;28;20040;-86
2022/12/31 00:50:55;;;;;;;22.73;3.72;;;10.00;80.00;;;;;;4153867;28;20101;-85
2022/12/31 00:53:16;;;;;;;26.17;3.78;;;9.90;80.00;;;;;;4159034;28;20038;-86
2022/12/31 00:55:37;;;;;;;30.88;3.67;;;10.00;80.10;;;;;;4153043;23;20050;-91
2022/12/31 00:57:58;;;;;;;29.70;3.92;;;10.10;80.20;;;;;;4141888;28;20042;-90
2022/12/31 01:00:07;;;;;;;28.05;3.80;;;9.90;80.00;;;;;;4139147;28;20040;-89
2022/12/31 01:02:08;;;;;;;26.07;3.87;;;9.90;80.00;;;;;;4141593;28;20041;-90
2022/12/31 01:04:27;;;;;;;23.00;3.80;;;9.90;80.00;;;;;;4130450;28;20052;-89
2022/12/31 01:06:31;;;;;;;27.55;4.35;;;9.90;80.00;;;;;;4141627;28;20409;-88
2022/12/31 01:08:32;;;;;;;21.73;3.55;;;9.90;79.90;;;;;;4147793;28;20050;-89
2022/12/31 01:12:53;;;;;;;27.52;4.35;;;10.00;79.90;;;;;;4142007;28;20034;-91
2022/12/31 01:14:53;;;;;;;25.83;4.10;;;9.90;79.80;;;;;;4137544;28;20044;-90
2022/12/31 01:17:16;;;;;;;26.65;3.67;;;9.90;79.80;;;;;;4152791;28;20049;-89
2022/12/31 01:19:36;;;;;;;29.35;3.97;;;10.00;79.80;;;;;;4128613;28;20041;-92
2022/12/31 01:21:57;;;;;;;19.70;3.60;;;9.90;79.70;;;;;;4137037;28;20136;-89
2022/12/31 01:24:18;;;;;;;25.38;3.20;;;9.90;79.80;;;;;;4132513;28;20061;-90
2022/12/31 01:26:39;;;;;;;27.52;4.47;;;9.80;79.80;;;;;;4135430;28;20041;-87
2022/12/31 01:28:50;;;;;;;26.27;3.67;;;9.90;79.90;;;;;;4119162;28;20154;-89
2022/12/31 01:30:56;;;;;;;25.98;3.42;;;9.90;79.90;;;;;;4117242;28;20033;-89
2022/12/31 01:33:17;;;;;;;26.70;4.05;;;9.80;79.90;;;;;;4139016;28;20109;-89
2022/12/31 01:35:37;;;;;;;29.70;3.88;;;9.90;80.00;;;;;;4135817;28;20038;-90
2022/12/31 01:37:58;;;;;;;26.60;3.50;;;9.90;79.90;;;;;;4138206;28;20535;-89
2022/12/31 01:40:18;;;;;;;24.65;3.40;;;9.90;80.00;;;;;;4135962;28;20030;-90
2022/12/31 01:42:39;;;;;;;28.38;3.92;;;9.90;80.70;;;;;;4149541;28;20109;-89
2022/12/31 01:45:00;;;;;;;23.52;3.47;;;9.90;79.90;;;;;;4135040;28;20038;-88
2022/12/31 01:47:37;;;;;;;28.80;3.92;;;9.90;79.90;;;;;;4140449;28;20037;-90
2022/12/31 01:50:08;;;;;;;20.63;3.95;;;9.90;79.80;;;;;;4124300;28;20030;-89
2022/12/31 01:52:33;;;;;;;26.52;3.83;;;9.90;79.80;;;;;;4132684;28;20109;-90
2022/12/31 01:55:21;;;;;;;27.95;4.30;;;9.90;79.80;;;;;;4148468;28;20115;-89
2022/12/31 01:57:45;;;;;;;24.02;3.38;;;9.90;79.80;;;;;;4132481;28;20440;-91
2022/12/31 02:00:07;;;;;;;40.05;4.05;;;10.00;79.70;;;;;;4134881;28;20093;-89
2022/12/31 02:02:27;;;;;;;23.63;3.28;;;9.80;79.60;;;;;;4134744;28;21075;-90
2022/12/31 02:04:51;;;;;;;26.52;3.33;;;9.80;79.60;;;;;;4135109;28;20398;-91
2022/12/31 02:07:12;;;;;;;25.90;4.28;;;9.80;79.60;;;;;;4151403;28;20030;-89
2022/12/31 02:09:37;;;;;;;27.73;3.85;;;9.80;79.60;;;;;;4167597;28;20468;-89
2022/12/31 02:11:57;;;;;;;29.30;4.05;;;9.90;79.60;;;;;;4148697;28;20097;-87
2022/12/31 02:14:41;;;;;;;23.30;3.47;;;9.80;79.60;;;;;;4151967;28;20038;-88
2022/12/31 02:16:58;;;;;;;22.83;3.58;;;9.80;79.60;;;;;;4144164;28;20057;-90
2022/12/31 02:19:30;;;;;;;27.60;3.40;;;9.80;79.60;;;;;;4137265;28;20094;-92
2022/12/31 02:22:04;;;;;;;28.75;3.88;;;9.70;79.50;;;;;;4132450;28;20036;-87
2022/12/31 02:24:10;;;;;;;23.73;3.47;;;9.70;79.60;;;;;;4139687;28;20029;-90
2022/12/31 02:27:00;;;;;;;39.15;4.60;;;9.60;79.60;;;;;;4116934;28;20040;-90
2022/12/31 02:29:13;;;;;;;28.92;3.78;;;9.70;79.80;;;;;;4079008;28;20572;-90
2022/12/31 02:31:44;;;;;;;37.42;4.82;;;9.70;79.70;;;;;;4083552;28;20748;-89
2022/12/31 02:33:51;;;;;;;29.35;3.70;;;9.70;79.80;;;;;;4059078;29;20033;-89
2022/12/31 02:36:19;;;;;;;41.85;4.50;;;9.70;79.80;;;;;;4104779;28;20032;-89
2022/12/31 02:38:42;;;;;;;29.02;4.07;;;9.70;79.80;;;;;;4090660;28;20023;-91
2022/12/31 02:41:03;;;;;;;29.90;4.07;;;9.70;79.80;;;;;;4072341;28;20060;-89
2022/12/31 02:43:24;;;;;;;32.58;4.07;;;9.60;79.70;;;;;;4073487;29;20058;-90
2022/12/31 02:45:52;;;;;;;37.25;4.68;;;9.70;79.80;;;;;;4086251;28;20038;-91
2022/12/31 02:48:25;;;;;;;26.05;3.88;;;9.60;79.70;;;;;;4074499;28;20112;-89
2022/12/31 02:51:32;;;;;;;27.27;3.70;;;9.60;79.70;;;;;;4076495;29;20389;-89
2022/12/31 02:54:39;;;;;;;25.85;3.60;;;9.60;79.70;;;;;;4059140;29;20028;-90
2022/12/31 02:57:05;;;;;;;19.50;3.25;;;9.60;79.70;;;;;;4080225;28;20032;-91
2022/12/31 03:02:13;;;;;;;27.08;3.13;;;9.50;79.60;;;;;;4091005;28;20122;-91
2022/12/31 03:04:48;;;;;;;21.00;3.20;;;9.60;79.70;;;;;;4075163;29;20024;-89
2022/12/31 03:06:42;;;;;;;29.63;4.90;;;9.60;79.80;;;;;;4137228;28;20132;-89
2022/12/31 03:12:44;;;;;;;24.55;3.75;;;9.60;79.80;;;;;;4134275;28;20034;-89
2022/12/31 03:13:24;;;;;;;29.50;4.00;;;9.50;79.90;;;;;;4134852;28;20102;-89
2022/12/31 03:15:31;;;;;;;22.33;3.17;;;9.50;79.90;;;;;;4135252;28;20065;-88
2022/12/31 03:18:00;;;;;;;21.80;3.45;;;9.50;79.90;;;;;;4147899;28;20024;-91
2022/12/31 03:22:42;;;;;;;26.63;3.63;;;9.40;79.80;;;;;;4143373;28;20025;-91
2022/12/31 03:27:54;;;;;;;26.17;4.07;;;9.30;79.80;;;;;;4143062;28;20019;-90
2022/12/31 03:30:17;;;;;;;23.98;3.78;;;9.40;79.90;;;;;;4142945;28;20037;-91
2022/12/31 03:32:38;;;;;;;28.67;3.80;;;9.40;79.80;;;;;;4147032;28;20075;-90
2022/12/31 03:34:59;;;;;;;38.22;5.50;;;9.50;80.00;;;;;;4138204;28;20034;-90
2022/12/31 03:37:20;;;;;;;26.98;3.85;;;9.30;79.80;;;;;;4141726;28;20037;-89
2022/12/31 03:39:20;;;;;;;33.95;4.25;;;9.30;79.80;;;;;;4140567;28;20030;-91
2022/12/31 03:41:21;;;;;;;28.13;3.92;;;9.30;79.80;;;;;;4122605;28;20035;-90
2022/12/31 03:43:22;;;;;;;35.40;3.78;;;9.30;79.90;;;;;;4139334;28;20036;-92
2022/12/31 03:45:43;;;;;;;29.08;4.32;;;9.30;79.90;;;;;;4143340;28;20030;-90
2022/12/31 03:48:06;;;;;;;21.30;3.50;;;9.30;79.90;;;;;;4145143;28;20053;-90
2022/12/31 03:50:27;;;;;;;28.63;3.83;;;9.30;79.80;;;;;;4149046;28;20104;-92
2022/12/31 03:52:48;;;;;;;22.85;3.63;;;9.30;79.90;;;;;;4138127;28;20042;-91
2022/12/31 03:55:10;;;;;;;30.02;3.42;;;9.30;79.80;;;;;;4133521;28;20125;-93
2022/12/31 03:57:11;;;;;;;27.55;3.95;;;9.30;79.70;;;;;;4140075;28;20519;-92
2022/12/31 03:59:17;;;;;;;37.65;4.13;;;9.30;79.80;;;;;;4144013;28;20085;-92
2022/12/31 04:01:18;;;;;;;29.88;4.00;;;9.30;79.90;;;;;;4121094;28;20034;-92
2022/12/31 04:03:38;;;;;;;34.60;4.82;;;9.20;79.80;;;;;;4139061;28;20037;-90
2022/12/31 04:05:59;;;;;;;28.33;3.97;;;9.30;79.90;;;;;;4141864;28;20028;-92
2022/12/31 04:08:20;;;;;;;36.00;4.25;;;9.20;80.50;;;;;;4144787;28;20030;-92
2022/12/31 04:10:40;;;;;;;21.92;3.22;;;9.20;79.80;;;;;;4143830;28;20026;-92
2022/12/31 04:13:03;;;;;;;21.55;3.10;;;9.30;79.80;;;;;;4148607;28;20044;-89
2022/12/31 04:15:24;;;;;;;27.95;4.00;;;9.20;79.70;;;;;;4152400;28;20113;-90
2022/12/31 04:17:45;;;;;;;26.83;3.35;;;9.20;79.70;;;;;;4153267;28;20018;-90
2022/12/31 04:19:48;;;;;;;29.73;3.67;;;9.20;79.80;;;;;;4133914;28;20035;-91
2022/12/31 04:21:49;;;;;;;23.40;3.88;;;9.30;79.90;;;;;;4144796;28;20035;-92
2022/12/31 04:23:50;;;;;;;23.58;3.47;;;9.10;79.80;;;;;;4143274;28;20121;-92
2022/12/31 04:26:11;;;;;;;25.65;3.28;;;9.10;80.60;;;;;;4143223;28;20030;-92
2022/12/31 04:28:31;;;;;;;33.65;3.08;;;9.10;79.80;;;;;;4141078;28;20027;-91
2022/12/31 04:30:52;;;;;;;28.92;3.60;;;9.10;79.80;;;;;;4139778;28;20029;-91
2022/12/31 04:33:13;;;;;;;25.08;3.05;;;9.10;79.90;;;;;;4145382;28;20041;-91
2022/12/31 04:35:33;;;;;;;26.50;4.07;;;9.20;80.00;;;;;;4144507;28;20057;-92
2022/12/31 04:37:57;;;;;;;24.15;3.20;;;9.10;80.00;;;;;;4141887;28;20040;-93
2022/12/31 04:40:17;;;;;;;16.73;2.33;;;9.20;80.10;;;;;;4140458;28;20335;-93
2022/12/31 04:42:18;;;;;;;31.88;4.53;;;9.20;80.10;;;;;;4143643;28;20050;-92
2022/12/31 04:44:20;;;;;;;14.88;2.53;;;9.20;80.20;;;;;;4123681;28;20027;-92
2022/12/31 04:46:25;;;;;;;24.38;2.85;;;9.10;80.10;;;;;;4142505;28;20237;-92
2022/12/31 04:48:26;;;;;;;23.92;3.08;;;9.20;80.20;;;;;;4156835;28;20014;-93
2022/12/31 04:50:27;;;;;;;19.40;3.08;;;9.20;80.40;;;;;;4140897;28;20037;-90
2022/12/31 04:52:31;;;;;;;19.95;2.92;;;9.20;80.40;;;;;;4123249;28;20261;-91
2022/12/31 04:54:52;;;;;;;16.17;2.50;;;9.00;80.30;;;;;;4136200;28;20061;-92
2022/12/31 04:57:12;;;;;;;21.13;2.67;;;9.20;80.40;;;;;;4137422;28;20037;-92
2022/12/31 04:59:33;;;;;;;21.67;2.50;;;9.10;80.20;;;;;;4139117;28;20095;-91
2022/12/31 05:01:54;;;;;;;20.15;2.83;;;9.10;80.30;;;;;;4143156;28;20033;-92
2022/12/31 05:04:17;;;;;;;12.38;2.20;;;9.10;80.20;;;;;;4138765;28;20038;-90
2022/12/31 05:06:38;;;;;;;27.55;3.63;;;9.10;80.20;;;;;;4136077;28;20034;-90
2022/12/31 05:08:59;;;;;;;20.88;2.50;;;9.20;80.20;;;;;;4135876;28;20036;-93
2022/12/31 05:11:19;;;;;;;21.30;3.00;;;9.10;80.10;;;;;;4147116;28;20105;-92
2022/12/31 05:13:40;;;;;;;23.15;2.85;;;9.10;80.20;;;;;;4147669;28;20094;-92
2022/12/31 05:16:02;;;;;;;21.38;2.83;;;9.10;80.20;;;;;;4149805;28;20026;-92
2022/12/31 05:18:23;;;;;;;15.07;2.47;;;9.00;80.20;;;;;;4148047;28;20034;-93
2022/12/31 05:20:45;;;;;;;22.25;3.20;;;9.10;80.30;;;;;;4144649;28;20159;-92
2022/12/31 05:23:06;;;;;;;20.27;2.20;;;9.10;80.20;;;;;;4147227;28;20061;-91
2022/12/31 05:25:27;;;;;;;21.58;3.38;;;9.10;80.20;;;;;;4147228;28;20030;-93
2022/12/31 05:27:30;;;;;;;24.08;2.95;;;9.10;80.40;;;;;;4148007;28;20049;-91
2022/12/31 05:29:31;;;;;;;20.60;3.22;;;9.00;80.40;;;;;;4146703;28;20033;-90
2022/12/31 05:31:32;;;;;;;17.88;2.47;;;9.10;81.20;;;;;;4151130;28;20105;-91
2022/12/31 05:33:33;;;;;;;18.15;3.08;;;9.00;80.50;;;;;;4127062;28;20101;-90
2022/12/31 05:35:34;;;;;;;22.35;2.70;;;9.10;80.70;;;;;;4148311;28;20029;-91
2022/12/31 05:37:54;;;;;;;22.02;2.47;;;9.00;80.50;;;;;;4144937;28;20030;-92
2022/12/31 05:40:17;;;;;;;23.52;2.72;;;9.10;80.60;;;;;;4144878;28;20036;-92
2022/12/31 05:42:38;;;;;;;17.33;2.50;;;9.10;80.60;;;;;;4145574;28;20038;-91
2022/12/31 05:44:59;;;;;;;19.75;2.25;;;9.10;80.50;;;;;;4142374;28;20026;-90
2022/12/31 05:47:20;;;;;;;24.08;2.83;;;9.10;80.60;;;;;;4145549;28;20125;-92
2022/12/31 05:49:41;;;;;;;16.77;2.75;;;9.10;80.60;;;;;;4140144;28;20113;-91
2022/12/31 05:52:05;;;;;;;20.50;2.90;;;9.20;80.60;;;;;;4141286;28;20029;-93
2022/12/31 05:54:26;;;;;;;14.95;2.83;;;9.10;80.70;;;;;;4155334;28;20057;-91
2022/12/31 05:56:27;;;;;;;19.73;2.65;;;9.10;80.60;;;;;;4149197;28;20018;-92
2022/12/31 05:58:28;;;;;;;21.45;3.78;;;9.10;80.70;;;;;;4134157;28;20039;-91
2022/12/31 06:00:28;;;;;;;21.33;2.65;;;9.20;80.70;;;;;;4134477;28;20042;-93
2022/12/31 06:02:29;;;;;;;23.98;3.03;;;9.10;80.70;;;;;;4150058;28;20040;-90
2022/12/31 06:04:30;;;;;;;24.83;3.05;;;9.10;80.70;;;;;;4144016;28;20030;-91
2022/12/31 06:06:31;;;;;;;25.45;2.95;;;9.10;80.70;;;;;;4164335;28;20222;-92
2022/12/31 06:08:32;;;;;;;21.27;2.97;;;9.20;80.80;;;;;;4150720;28;20026;-91
2022/12/31 06:10:33;;;;;;;17.77;2.45;;;9.20;80.70;;;;;;4134436;28;20023;-91
2022/12/31 06:12:54;;;;;;;13.15;2.20;;;9.10;80.70;;;;;;4148458;28;20034;-91
2022/12/31 06:15:15;;;;;;;19.45;2.45;;;9.10;80.70;;;;;;4150888;28;20057;-90
2022/12/31 06:17:17;;;;;;;24.85;3.30;;;9.10;80.70;;;;;;4129564;28;20090;-92
2022/12/31 06:19:39;;;;;;;15.73;2.35;;;9.10;80.70;;;;;;4156066;28;20029;-90
2022/12/31 06:22:00;;;;;;;17.73;2.65;;;9.10;80.70;;;;;;4143775;28;20045;-91
2022/12/31 06:24:20;;;;;;;20.75;2.63;;;9.20;80.80;;;;;;4142735;28;20027;-91
2022/12/31 06:26:41;;;;;;;18.00;2.53;;;9.10;80.80;;;;;;4137158;28;20034;-92
2022/12/31 06:29:05;;;;;;;22.75;2.90;;;9.10;80.80;;;;;;4138590;28;20057;-92
2022/12/31 06:31:25;;;;;;;27.95;3.13;;;9.10;81.00;;;;;;4139778;28;20152;-93
2022/12/31 06:33:26;;;;;;;14.13;2.30;;;9.10;81.00;;;;;;4148798;28;20042;-93
2022/12/31 06:35:27;;;;;;;22.98;3.25;;;9.20;81.20;;;;;;4144591;28;20042;-91
2022/12/31 06:37:28;;;;;;;16.55;2.20;;;9.10;81.20;;;;;;4131686;28;20061;-91
2022/12/31 06:39:49;;;;;;;25.98;2.60;;;9.30;81.40;;;;;;4144794;28;20038;-90
2022/12/31 06:42:10;;;;;;;23.52;2.90;;;9.20;81.40;;;;;;4144487;28;20041;-92
2022/12/31 06:44:30;;;;;;;19.13;2.97;;;9.20;81.60;;;;;;4151786;28;20033;-92
2022/12/31 06:46:51;;;;;;;18.05;2.50;;;9.30;81.70;;;;;;4149814;28;20038;-92
2022/12/31 06:49:12;;;;;;;22.85;3.55;;;9.40;81.80;;;;;;4137541;28;20149;-91
2022/12/31 06:51:34;;;;;;;21.25;3.10;;;9.20;81.60;;;;;;4128650;28;20022;-90
2022/12/31 06:53:34;;;;;;;21.52;3.15;;;9.30;81.70;;;;;;4137958;28;20027;-91
2022/12/31 06:55:35;;;;;;;22.98;3.40;;;9.30;81.60;;;;;;4132340;28;20391;-92
2022/12/31 06:57:36;;;;;;;19.88;2.72;;;9.30;81.80;;;;;;4147450;28;20045;-91
2022/12/31 06:59:38;;;;;;;22.75;2.97;;;9.30;81.70;;;;;;4119673;28;20058;-91
2022/12/31 07:01:47;;;;;;;19.05;3.40;;;9.30;81.70;;;;;;4149656;28;20042;-90
2022/12/31 07:04:20;;;;;;;18.00;2.42;;;9.30;81.80;;;;;;4147698;28;20109;-91
2022/12/31 07:06:42;;;;;;;24.75;3.22;;;9.30;81.90;;;;;;4129069;28;20030;-90
2022/12/31 07:09:08;;;;;;;26.60;3.40;;;9.30;81.70;;;;;;4146275;28;20581;-89
2022/12/31 07:11:22;;;;;;;25.45;3.10;;;9.30;81.90;;;;;;4147188;28;20037;-91
2022/12/31 07:14:00;;;;;;;23.88;3.50;;;9.40;81.80;;;;;;4147825;28;20034;-90
2022/12/31 07:16:35;;;;;;;25.88;3.40;;;9.30;81.80;;;;;;4150186;28;20045;-90
2022/12/31 07:18:55;;;;;;;;;;;9.40;81.80;;;;;;4152365;28;20034;-92
2022/12/31 07:21:32;;;;;;;23.67;4.05;;;9.40;82.20;;;;;;4143492;28;19973;-91
2022/12/31 07:23:53;;;;;;;25.55;3.72;;;9.40;81.80;;;;;;4151268;28;20058;-90
2022/12/31 07:26:21;;;;;;;17.67;3.72;;;9.30;81.70;;;;;;4144960;28;20041;-90
2022/12/31 07:28:57;;;;;;;21.50;4.13;;;9.40;81.90;;;;;;4142557;28;20062;-91
2022/12/31 07:31:41;;;;;;;16.65;3.42;;;9.40;82.20;;;;;;4151337;28;20021;-90
2022/12/31 07:34:21;;;;;;;;;;;9.40;82.20;;;;;;4146921;28;20127;-90
2022/12/31 07:36:44;;;;;;;15.65;3.95;;;9.40;82.80;;;;;;4152433;28;19980;-91
2022/12/31 07:39:11;;;;;;;26.05;3.78;;;9.50;82.20;;;;;;4143414;28;20106;-91
2022/12/31 07:41:46;;;;;;;23.08;4.70;;;9.50;82.30;;;;;;4123933;28;20061;-92
2022/12/31 07:44:11;;;;;;;17.55;4.35;;;9.50;82.40;;;;;;4106923;28;20039;-92
2022/12/31 07:46:55;;;;;;;27.88;4.43;;;9.50;82.30;;;;;;4120096;28;20038;-92
2022/12/31 07:48:56;;;;;;;21.70;3.60;;;9.50;82.50;;;;;;4127014;28;20152;-90
2022/12/31 07:50:57;;;;;;;24.27;4.20;;;9.50;82.30;;;;;;4087037;28;20050;-93
2022/12/31 07:52:59;;;;;;;24.25;4.60;;;9.60;82.40;;;;;;4091419;28;20643;-91
2022/12/31 07:54:59;;;;;;;25.48;5.50;;;9.60;82.50;;;;;;4097769;28;20034;-91
2022/12/31 07:57:00;;;;;;;21.92;5.13;;;9.60;82.50;;;;;;4091100;28;20015;-92
2022/12/31 07:59:27;;;;;;;23.58;4.43;;;9.60;82.60;;;;;;4081348;28;20175;-89
2022/12/31 08:01:47;;;;;;;21.77;4.10;;;9.60;82.60;;;;;;4083889;28;20070;-90
2022/12/31 08:03:56;;;;;;;26.02;3.63;;;9.60;82.60;;;;;;4089456;28;20186;-89
2022/12/31 08:06:25;;;;;;;27.42;4.05;;;9.60;82.50;;;;;;4087249;28;20531;-90
2022/12/31 08:08:43;;;;;;;21.70;3.85;;;9.60;82.70;;;;;;4086607;28;20074;-91
2022/12/31 08:11:07;;;;;;;21.08;3.88;;;9.70;82.70;;;;;;4084566;28;20122;-90
2022/12/31 08:13:10;;;;;;;29.75;4.95;;;9.70;82.50;;;;;;4105478;28;20026;-91
2022/12/31 08:15:13;;;;;;;24.92;4.47;;;9.70;82.50;;;;;;4074962;29;22634;-93
2022/12/31 08:17:17;;;;;;;19.75;3.88;;;9.70;82.50;;;;;;4092894;28;20039;-92
2022/12/31 08:19:23;;;;;;;27.73;3.65;;;9.70;82.50;;;;;;4092655;28;20242;-91
2022/12/31 08:22:00;;;;;;;18.02;3.22;;;9.70;82.50;;;;;;4140226;28;20097;-90
2022/12/31 08:24:23;;;;;;;22.45;3.45;;;9.80;82.60;;;;;;4135476;28;20037;-90
2022/12/31 08:26:35;;;;;;;21.73;4.55;;;9.70;82.50;;;;;;4137916;28;20086;-92
2022/12/31 08:28:46;;;;;;;26.27;3.75;;;9.80;82.60;;;;;;4135767;28;20061;-91
2022/12/31 08:30:54;;;;;;;24.65;3.30;;;9.90;82.60;;;;;;4115153;28;20422;-90
2022/12/31 08:33:12;;;;;;;21.77;3.58;;;9.90;82.70;;;;;;4137818;28;20030;-91
2022/12/31 08:35:40;;;;;;;19.67;4.38;;;9.80;82.60;;;;;;4133211;28;20061;-92
2022/12/31 08:37:46;;;;;;;18.27;3.15;;;9.80;82.40;;;;;;4142612;28;20037;-92
2022/12/31 08:40:03;;;;;;;22.33;2.90;;;9.80;82.50;;;;;;4138554;28;20053;-90
2022/12/31 08:42:16;;;;;;;17.52;3.17;;;9.80;82.50;;;;;;4121237;28;20050;-90
2022/12/31 08:44:38;;;;;;;18.00;2.63;;;9.90;82.50;;;;;;4140887;28;20018;-93
2022/12/31 08:46:53;;;;;;;30.00;3.78;;;9.90;82.50;;;;;;4154139;28;20032;-91
2022/12/31 08:48:54;;;;;;;18.55;3.20;;;9.90;82.50;;;;;;4137768;28;20053;-90
2022/12/31 08:50:55;;;;;;;25.52;3.65;;;9.90;82.50;;;;;;4133629;28;20040;-91
2022/12/31 08:52:56;;;;;;;15.85;3.10;;;9.90;82.60;;;;;;4140370;28;20033;-89
2022/12/31 08:54:58;;;;;;;21.02;3.22;;;9.90;82.60;;;;;;4139606;28;20095;-91
2022/12/31 08:57:15;;;;;;;25.17;4.22;;;10.00;82.60;;;;;;4135949;28;20410;-89
2022/12/31 08:59:48;;;;;;;14.77;2.90;;;10.00;82.60;;;;;;4137158;28;20037;-91
2022/12/31 09:02:37;;;;;;;15.18;4.15;;;10.00;82.60;;;;;;4118933;28;20620;-90
2022/12/31 09:04:59;;;;;;;11.95;3.10;;;10.00;82.50;;;;;;4133965;28;21413;-92
2022/12/31 09:07:02;;;;;;;19.77;3.25;;;10.00;82.40;;;;;;4115779;28;20018;-92
2022/12/31 09:09:40;;;;;;;15.30;3.45;;;10.00;82.40;;;;;;4120868;28;20429;-90
2022/12/31 09:11:56;;;;;;;14.15;2.45;;;10.00;82.40;;;;;;4132829;28;20026;-92
2022/12/31 09:14:22;;;;;;;15.73;2.88;;;10.10;82.40;;;;;;4150213;28;20030;-92
2022/12/31 09:17:02;;;;;;;11.18;2.40;;;10.10;82.30;;;;;;4127999;28;20042;-91
2022/12/31 09:19:02;;;;;;;9.55;2.22;;;10.10;82.30;;;;;;4129395;28;20390;-91
2022/12/31 09:21:03;;;;;;;10.48;3.15;;;10.10;82.10;;;;;;4112561;28;20128;-89
2022/12/31 09:23:05;;;;;;;15.50;2.72;;;10.10;82.20;;;;;;4120563;28;20034;-91
2022/12/31 09:25:11;;;;;;;11.10;3.10;;;10.10;82.30;;;;;;4138739;28;20128;-90
2022/12/31 09:27:14;;;;;;;11.15;3.40;;;10.10;82.40;;;;;;4137584;28;20029;-90
2022/12/31 09:29:15;;;;;;;;;;;10.10;82.40;;;;;;4130215;28;20034;-91
2022/12/31 09:31:32;;;;;;;13.48;3.40;;;10.20;82.60;;;;;;4129654;28;19913;-92
2022/12/31 09:34:01;;;;;;;10.25;3.40;;;10.10;82.10;;;;;;4127529;28;20029;-87
2022/12/31 09:36:07;;;;;;;13.18;3.22;;;10.10;82.20;;;;;;4125112;28;20049;-87
2022/12/31 09:38:19;;;;;;;12.73;3.55;;;10.10;82.10;;;;;;4109819;28;20504;-88
2022/12/31 09:41:00;;;;;;;11.23;3.20;;;10.10;82.20;;;;;;4130684;28;20026;-87
2022/12/31 09:43:19;;;;;;;7.50;2.90;;;10.10;82.60;;;;;;4135076;28;20030;-87
2022/12/31 09:45:50;;;;;;;8.98;2.60;;;10.10;82.30;;;;;;4133291;28;20133;-87
2022/12/31 09:48:23;;;;;;;9.02;2.55;;;10.20;82.40;;;;;;4131400;28;20033;-87
2022/12/31 09:50:36;;;;;;;6.28;2.75;;;10.10;82.40;;;;;;4106785;28;20026;-88
2022/12/31 09:52:58;;;;;;;6.78;2.50;;;10.10;82.40;;;;;;4118126;28;20584;-89
2022/12/31 09:55:11;;;;;;;7.03;2.10;;;10.10;82.40;;;;;;4133967;28;20112;-90
2022/12/31 09:57:37;;;;;;;6.07;1.77;;;10.20;82.50;;;;;;4140345;28;20440;-90
2022/12/31 10:00:16;;;;;;;11.68;2.33;;;10.20;82.50;;;;;;4106728;28;20046;-91
2022/12/31 10:02:37;;;;;;;5.35;1.75;;;10.20;82.60;;;;;;4107937;28;20096;-88
2022/12/31 10:05:23;;;;;;;5.93;1.85;;;10.20;82.50;;;;;;4118192;28;20033;-88
2022/12/31 10:07:44;;;;;;;9.02;1.92;;;10.20;82.50;;;;;;4112041;28;20313;-88
2022/12/31 10:09:49;;;;;;;6.55;1.63;;;10.10;82.30;;;;;;4084548;28;20133;-89
2022/12/31 10:12:43;;;;;;;9.63;1.98;;;10.10;82.30;;;;;;4124034;28;20464;-86
2022/12/31 10:15:03;;;;;;;6.72;1.88;;;10.20;82.40;;;;;;4129035;28;20025;-90
2022/12/31 10:17:45;;;;;;;6.55;1.48;;;10.10;82.30;;;;;;4136359;28;20026;-91
2022/12/31 10:20:26;;;;;;;5.45;1.20;;;10.10;82.30;;;;;;4149025;28;20121;-90
2022/12/31 10:23:13;;;;;;;2.55;1.00;;;10.10;82.20;;;;;;4138442;28;20116;-91
2022/12/31 10:26:07;;;;;;;5.53;1.10;;;10.10;82.10;;;;;;4122859;28;20161;-92
2022/12/31 10:28:34;;;;;;;1.77;0.85;;;10.10;82.00;;;;;;4152036;28;20028;-91
2022/12/31 10:31:20;;;;;;;1.85;0.90;;;10.10;82.00;;;;;;4136573;28;20030;-92
2022/12/31 10:34:12;;;;;;;6.32;0.80;;;10.10;81.90;;;;;;4140584;28;20041;-94
2022/12/31 10:36:52;;;;;;;2.03;0.60;;;10.10;81.70;;;;;;4154323;28;20036;-91
2022/12/31 10:39:29;;;;;;;4.03;0.82;;;10.10;81.60;;;;;;4149147;28;20048;-89
2022/12/31 10:42:08;;;;;;;5.47;0.95;;;10.10;81.70;;;;;;4140086;28;20108;-91
2022/12/31 10:44:48;;;;;;;4.18;1.08;;;10.10;81.70;;;;;;4141375;28;20113;-89
2022/12/31 10:47:50;;;;;;;4.15;0.75;;;10.10;81.60;;;;;;4141066;28;20061;-91
2022/12/31 10:50:32;;;;;;;5.30;0.80;;;10.10;81.60;;;;;;4122781;28;20157;-91
2022/12/31 10:53:10;;;;;;;5.68;1.02;;;10.10;81.40;;;;;;4108857;28;20049;-92
2022/12/31 10:55:49;;;;;;;3.25;0.60;;;10.10;81.40;;;;;;4132858;28;20061;-91
2022/12/31 10:58:36;;;;;;;8.10;1.50;;;10.10;81.40;;;;;;4126393;28;20030;-90
2022/12/31 11:00:54;;;;;;;10.63;1.70;;;10.10;81.50;;;;;;4139779;28;20097;-91
2022/12/31 11:03:19;;;;;;;3.63;0.70;;;10.10;81.40;;;;;;4137052;28;20056;-90
2022/12/31 11:05:43;;;;;;;5.00;0.70;;;10.10;81.30;;;;;;4134561;28;20954;-92
2022/12/31 11:08:01;;;;;;;4.20;0.43;;;10.00;81.00;;;;;;4135711;28;20026;-90
2022/12/31 11:10:30;;;;;;;5.32;0.80;;;10.00;80.90;;;;;;4149596;28;20025;-91
2022/12/31 11:12:49;;;;;;;2.90;0.60;;;10.00;80.70;;;;;;4137454;28;20036;-91
2022/12/31 11:15:01;;;;;;;3.75;0.73;;;10.00;80.70;;;;;;4121004;28;20034;-90
2022/12/31 11:17:29;;;;;;;2.85;0.50;;;10.00;80.70;;;;;;4172453;28;20032;-90
2022/12/31 11:20:00;;;;;;;2.17;0.50;;;9.90;80.60;;;;;;4124677;28;20030;-91
2022/12/31 11:22:24;;;;;;;3.92;0.55;;;9.90;80.60;;;;;;4141725;28;20037;-91
2022/12/31 11:25:00;;;;;;;7.68;0.40;;;9.90;80.60;;;;;;4139463;28;20022;-92
2022/12/31 11:27:12;;;;;;;2.70;0.40;;;9.90;80.50;;;;;;4107563;28;20066;-91
2022/12/31 11:29:22;;;;;;;1.83;0.40;;;9.90;80.50;;;;;;4107635;28;20063;-93
2022/12/31 11:32:18;;;;;;;0.70;0.25;;;9.80;80.40;;;;;;4095091;28;20156;-90
2022/12/31 11:34:47;;;;;;;1.08;0.35;;;9.80;80.40;;;;;;4078771;29;21289;-91
2022/12/31 11:37:09;;;;;;;0.90;0.13;;;9.80;80.30;;;;;;4096925;28;20065;-92
2022/12/31 11:39:42;;;;;;;1.48;0.30;;;9.80;80.40;;;;;;4095295;28;20035;-91
2022/12/31 11:42:58;;;;;;;3.05;0.20;;;9.70;80.40;;;;;;4093104;28;20035;-89
2022/12/31 11:45:33;;;;;;;1.65;0.30;;;9.80;80.40;;;;;;4058415;29;21476;-92
2022/12/31 11:48:01;;;;;;;2.17;0.32;;;9.70;80.30;;;;;;4059078;29;20156;-90
2022/12/31 11:50:30;;;;;;;1.77;0.40;;;9.70;80.40;;;;;;4049712;29;20048;-92
2022/12/31 11:52:34;;;;;;;1.50;0.43;;;9.70;80.50;;;;;;4073577;29;23025;-92
2022/12/31 11:55:17;;;;;;;1.67;0.20;;;9.70;80.60;;;;;;4061173;29;20623;-92
2022/12/31 11:57:35;;;;;;;5.43;0.60;;;9.70;80.70;;;;;;4072058;29;20035;-89
2022/12/31 12:00:01;;;;;;;2.38;0.95;;;9.70;80.70;;;;;;4058566;29;20095;-91
2022/12/31 12:02:40;;;;;;;2.85;0.43;;;9.70;80.80;;;;;;4087044;28;20042;-87
2022/12/31 12:05:04;;;;;;;4.00;0.77;;;9.80;80.90;;;;;;4083734;28;20149;-88
2022/12/31 12:07:27;;;;;;;4.75;0.60;;;9.70;80.90;;;;;;4066693;29;20051;-89
2022/12/31 12:09:48;;;;;;;4.40;0.70;;;9.70;81.00;;;;;;4079947;29;20035;-89
2022/12/31 12:12:15;;;;;;;1.58;0.30;;;9.70;81.10;;;;;;4062156;28;20595;-90
2022/12/31 12:14:39;;;;;;;2.40;0.40;;;9.80;81.20;;;;;;4088328;28;20100;-90
2022/12/31 12:17:00;;;;;;;0.50;0.30;;;9.80;81.20;;;;;;4080091;28;20043;-89
2022/12/31 12:19:25;;;;;;;1.83;0.43;;;9.70;81.20;;;;;;4124672;28;20527;-91
2022/12/31 12:21:47;;;;;;;1.58;0.70;;;9.80;81.40;;;;;;4133136;28;20042;-90
2022/12/31 12:24:29;;;;;;;1.35;0.55;;;9.90;81.40;;;;;;4136510;28;20099;-89